createdAt,value
2018-09-10T00:01:26.931Z,13.30
2018-09-10T00:03:55.599Z,13.77
2018-09-10T00:06:24.577Z,12.77
2018-09-10T00:08:53.654Z,11.30
2018-09-10T00:11:22.700Z,11.23
2018-09-10T00:13:51.601Z,10.13
2018-09-10T00:16:20.371Z,10.47
2018-09-10T00:18:49.035Z,11.47
2018-09-10T00:21:17.635Z,13.07
2018-09-10T00:23:46.476Z,11.53
2018-09-10T00:26:15.230Z,11.23
2018-09-10T00:28:44.203Z,11.67
2018-09-10T00:31:13.036Z,12.03
2018-09-10T00:33:41.881Z,14.93
2018-09-10T00:36:10.515Z,11.93
2018-09-10T00:38:39.378Z,13.73
2018-09-10T00:41:08.037Z,15.00
2018-09-10T00:43:36.944Z,14.43
2018-09-10T00:46:05.596Z,12.60
2018-09-10T00:48:34.636Z,17.30
2018-09-10T00:51:03.614Z,13.83
2018-09-10T00:53:32.453Z,15.10
2018-09-10T00:56:01.446Z,16.90
2018-09-10T00:58:30.508Z,15.60
2018-09-10T01:00:59.341Z,14.00
2018-09-10T01:03:28.010Z,14.03
2018-09-10T01:05:56.859Z,17.63
2018-09-10T01:08:25.789Z,15.83
2018-09-10T01:10:54.763Z,15.70
2018-09-10T01:13:23.381Z,17.83
2018-09-10T01:15:52.547Z,18.70
2018-09-10T01:18:21.326Z,18.73
2018-09-10T01:20:50.011Z,14.40
2018-09-10T01:23:18.971Z,17.90
2018-09-10T01:25:48.005Z,17.27
2018-09-10T01:28:16.982Z,14.40
2018-09-10T01:30:45.894Z,18.70
2018-09-10T01:33:19.719Z,20.10
2018-09-10T01:35:48.553Z,16.13
2018-09-10T01:38:17.262Z,19.50
2018-09-10T01:40:46.079Z,18.13
2018-09-10T01:43:15.003Z,26.17
2018-09-10T01:45:43.677Z,22.03
2018-09-10T01:48:12.481Z,17.93
2018-09-10T01:50:41.438Z,22.37
2018-09-10T01:53:10.202Z,22.73
2018-09-10T01:55:38.887Z,24.83
2018-09-10T01:58:07.527Z,29.70
2018-09-10T02:00:36.329Z,28.97
2018-09-10T02:03:05.453Z,36.47
2018-09-10T02:05:34.383Z,53.20
2018-09-10T02:08:03.170Z,32.80
2018-09-10T02:10:32.024Z,51.70
2018-09-10T02:13:00.643Z,41.07
2018-09-10T02:15:29.507Z,37.97
2018-09-10T02:17:58.204Z,36.53
2018-09-10T02:20:26.933Z,49.63
2018-09-10T02:22:55.706Z,65.60
2018-09-10T02:25:30.842Z,56.77
2018-09-10T02:27:59.654Z,58.37
2018-09-10T02:30:28.705Z,68.73
2018-09-10T02:32:57.514Z,32.00
2018-09-10T02:35:26.308Z,53.10
2018-09-10T02:37:55.199Z,47.93
2018-09-10T02:40:23.880Z,91.73
2018-09-10T02:42:52.806Z,81.43
2018-09-10T02:45:21.513Z,88.97
2018-09-10T02:47:50.525Z,59.20
2018-09-10T02:50:19.245Z,62.70
2018-09-10T02:52:48.225Z,82.53
2018-09-10T02:55:17.442Z,73.53
2018-09-10T02:57:46.171Z,44.90
2018-09-10T03:00:14.987Z,29.23
2018-09-10T03:02:43.927Z,36.77
2018-09-10T03:05:12.684Z,31.30
2018-09-10T03:07:41.505Z,36.50
2018-09-10T03:10:10.342Z,33.07
2018-09-10T03:12:39.030Z,24.23
2018-09-10T03:15:07.716Z,27.10
2018-09-10T03:17:36.459Z,25.47
2018-09-10T03:20:05.650Z,26.97
2018-09-10T03:22:34.423Z,19.67
2018-09-10T03:25:03.464Z,24.43
2018-09-10T03:27:32.167Z,23.40
2018-09-10T03:30:00.860Z,22.83
2018-09-10T03:32:29.909Z,20.67
2018-09-10T03:34:58.900Z,19.70
2018-09-10T03:37:27.688Z,20.83
2018-09-10T03:39:56.506Z,21.23
2018-09-10T03:42:25.219Z,22.87
2018-09-10T03:44:54.122Z,17.67
2018-09-10T03:47:23.069Z,19.73
2018-09-10T03:49:51.654Z,22.60
2018-09-10T03:52:20.354Z,18.50
2018-09-10T03:54:48.975Z,20.63
2018-09-10T03:57:18.154Z,18.27
2018-09-10T03:59:47.042Z,19.63
2018-09-10T04:02:15.992Z,20.40
2018-09-10T04:04:44.874Z,20.53
2018-09-10T04:07:13.768Z,19.30
2018-09-10T04:09:42.517Z,17.97
2018-09-10T04:12:11.391Z,19.30
2018-09-10T04:14:40.461Z,18.00
2018-09-10T04:17:09.461Z,17.90
2018-09-10T04:19:38.524Z,17.47
2018-09-10T04:22:07.585Z,17.33
2018-09-10T04:24:36.472Z,19.60
2018-09-10T04:27:05.389Z,18.17
2018-09-10T04:29:34.304Z,20.50
2018-09-10T04:32:03.052Z,20.33
2018-09-10T04:34:31.799Z,19.70
2018-09-10T04:37:00.527Z,19.90
2018-09-10T04:39:29.458Z,17.90
2018-09-10T04:41:58.473Z,19.67
2018-09-10T04:44:27.179Z,16.80
2018-09-10T04:46:55.957Z,20.77
2018-09-10T04:49:24.611Z,19.93
2018-09-10T04:51:53.539Z,17.83
2018-09-10T04:54:22.328Z,18.57
2018-09-10T04:56:51.238Z,19.30
2018-09-10T04:59:20.451Z,17.77
2018-09-10T05:01:49.184Z,16.33
2018-09-10T05:04:17.823Z,16.90
2018-09-10T05:06:46.735Z,19.87
2018-09-10T05:09:16.079Z,18.43
2018-09-10T05:11:44.942Z,28.03
2018-09-10T05:14:13.624Z,61.03
2018-09-10T05:16:42.825Z,32.00
2018-09-10T05:19:11.525Z,31.50
2018-09-10T05:21:40.361Z,26.33
2018-09-10T05:24:09.059Z,54.37
2018-09-10T05:26:37.925Z,30.07
2018-09-10T05:29:06.833Z,83.30
2018-09-10T05:31:35.597Z,42.50
2018-09-10T05:34:04.449Z,24.83
2018-09-10T05:36:33.062Z,30.40
2018-09-10T05:39:01.995Z,24.17
2018-09-10T05:41:30.729Z,23.47
2018-09-10T05:43:59.554Z,20.33
2018-09-10T05:46:28.307Z,19.87
2018-09-10T05:48:57.153Z,19.20
2018-09-10T05:51:26.219Z,14.37
2018-09-10T05:53:55.141Z,17.00
2018-09-10T05:56:24.040Z,15.50
2018-09-10T05:58:52.787Z,14.07
2018-09-10T06:01:21.572Z,15.50
2018-09-10T06:03:50.704Z,16.07
2018-09-10T06:06:19.388Z,15.03
2018-09-10T06:08:48.446Z,13.97
2018-09-10T06:11:17.413Z,15.23
2018-09-10T06:13:46.578Z,13.90
2018-09-10T06:16:15.423Z,13.83
2018-09-10T06:18:44.252Z,13.73
2018-09-10T06:21:13.092Z,16.30
2018-09-10T06:23:41.821Z,13.10
2018-09-10T06:26:10.729Z,13.07
2018-09-10T06:28:39.897Z,13.27
2018-09-10T06:31:08.851Z,13.80
2018-09-10T06:33:37.559Z,12.80
2018-09-10T06:36:06.540Z,11.90
2018-09-10T06:38:35.268Z,15.33
2018-09-10T06:41:04.019Z,12.83
2018-09-10T06:43:32.870Z,11.20
2018-09-10T06:46:01.740Z,11.67
2018-09-10T06:48:35.147Z,10.40
2018-09-10T06:51:05.739Z,9.93
2018-09-10T06:53:34.889Z,10.20
2018-09-10T06:56:04.911Z,9.20
2018-09-10T06:58:34.449Z,10.27
2018-09-10T07:01:03.362Z,8.97
2018-09-10T07:03:31.964Z,8.30
2018-09-10T07:06:01.477Z,11.13
2018-09-10T07:08:30.150Z,8.27
2018-09-10T07:10:58.987Z,7.97
2018-09-10T07:13:27.714Z,10.00
2018-09-10T07:15:56.623Z,6.73
2018-09-10T07:18:25.454Z,9.60
2018-09-10T07:20:54.268Z,5.93
2018-09-10T07:23:23.154Z,7.83
2018-09-10T07:25:52.057Z,6.97
2018-09-10T07:28:20.732Z,6.77
2018-09-10T07:30:49.369Z,10.50
2018-09-10T07:33:18.382Z,5.87
2018-09-10T07:35:47.014Z,10.80
2018-09-10T07:38:15.714Z,4.83
2018-09-10T07:40:44.452Z,4.90
2018-09-10T07:43:19.748Z,7.60
2018-09-10T07:45:48.481Z,4.53
2018-09-10T07:48:17.134Z,5.73
2018-09-10T07:50:46.286Z,4.73
2018-09-10T07:53:15.027Z,3.73
2018-09-10T07:55:43.749Z,5.67
2018-09-10T07:58:12.795Z,4.23
2018-09-10T08:00:41.603Z,5.73
2018-09-10T08:03:10.366Z,4.90
2018-09-10T08:05:39.130Z,4.30
2018-09-10T08:08:07.964Z,4.80
2018-09-10T08:10:36.690Z,4.83
2018-09-10T08:13:05.352Z,5.03
2018-09-10T08:15:34.223Z,3.13
2018-09-10T08:18:02.971Z,3.57
2018-09-10T08:20:31.912Z,3.43
2018-09-10T08:23:00.684Z,5.47
2018-09-10T08:25:29.757Z,8.17
2018-09-10T08:27:58.425Z,4.73
2018-09-10T08:30:27.176Z,3.37
2018-09-10T08:32:56.015Z,9.07
2018-09-10T08:35:24.948Z,3.90
2018-09-10T08:37:54.159Z,4.00
2018-09-10T08:40:22.898Z,9.33
2018-09-10T08:42:51.846Z,3.23
2018-09-10T08:45:20.578Z,6.13
2018-09-10T08:47:49.506Z,3.87
2018-09-10T08:50:18.370Z,4.30
2018-09-10T08:52:47.356Z,4.03
2018-09-10T08:55:16.332Z,5.40
2018-09-10T08:57:45.133Z,5.60
2018-09-10T09:00:14.236Z,6.47
2018-09-10T09:02:43.128Z,5.43
2018-09-10T09:05:12.073Z,4.73
2018-09-10T09:07:40.764Z,3.60
2018-09-10T09:10:09.526Z,4.43
2018-09-10T09:12:38.396Z,3.10
2018-09-10T09:15:07.405Z,5.63
2018-09-10T09:17:36.348Z,5.93
2018-09-10T09:20:05.962Z,3.97
2018-09-10T09:22:34.964Z,4.63
2018-09-10T09:25:04.004Z,4.70
2018-09-10T09:27:32.879Z,5.63
2018-09-10T09:30:01.606Z,4.50
2018-09-10T09:32:30.324Z,3.10
2018-09-10T09:34:59.779Z,6.40
2018-09-10T09:37:33.934Z,3.73
2018-09-10T09:40:07.987Z,5.50
2018-09-10T09:42:41.976Z,3.60
2018-09-10T09:45:16.258Z,4.73
2018-09-10T09:47:44.900Z,4.03
2018-09-10T09:53:55.851Z,11.43
2018-09-10T09:56:24.715Z,4.10
2018-09-10T09:58:53.435Z,3.13
2018-09-10T10:01:28.131Z,5.00
2018-09-10T10:05:00.076Z,3.87
2018-09-10T10:07:28.900Z,5.17
2018-09-10T10:09:57.674Z,12.67
2018-09-10T10:12:26.488Z,2.50
2018-09-10T10:14:55.233Z,3.00
2018-09-10T10:17:23.916Z,2.97
2018-09-10T10:19:53.026Z,3.80
2018-09-10T10:22:21.702Z,2.83
2018-09-10T10:24:50.641Z,6.93
2018-09-10T10:27:19.557Z,3.17
2018-09-10T10:29:48.354Z,4.97
2018-09-10T10:32:17.224Z,3.83
2018-09-10T10:34:46.215Z,10.67
2018-09-10T10:37:14.869Z,4.97
2018-09-10T10:39:43.508Z,7.43
2018-09-10T10:42:12.228Z,3.20
2018-09-10T10:44:40.867Z,3.40
2018-09-10T10:47:09.524Z,4.30
2018-09-10T10:49:38.276Z,4.73
2018-09-10T10:52:07.481Z,8.40
2018-09-10T11:02:17.565Z,3.20
2018-09-10T11:04:46.425Z,6.13
2018-09-10T11:07:15.521Z,3.80
2018-09-10T11:09:44.248Z,2.93
2018-09-10T11:12:13.275Z,7.77
2018-09-10T11:14:42.036Z,3.70
2018-09-10T11:17:10.749Z,4.47
2018-09-10T11:19:39.549Z,3.00
2018-09-10T11:22:08.639Z,3.53
2018-09-10T11:24:37.303Z,5.20
2018-09-10T11:27:06.010Z,4.90
2018-09-10T11:29:34.745Z,5.20
2018-09-10T11:32:03.525Z,4.73
2018-09-10T11:34:32.209Z,5.50
2018-09-10T11:37:00.787Z,3.87
2018-09-10T11:39:29.519Z,5.60
2018-09-10T11:41:58.413Z,3.10
2018-09-10T11:44:27.122Z,2.93
2018-09-10T11:46:55.878Z,5.67
2018-09-10T11:49:24.698Z,2.97
2018-09-10T11:51:53.485Z,2.63
2018-09-10T11:54:22.157Z,4.57
2018-09-10T11:56:50.965Z,5.00
2018-09-10T11:59:19.833Z,4.90
2018-09-10T12:01:48.825Z,5.00
2018-09-10T12:04:17.435Z,3.23
2018-09-10T12:06:46.208Z,4.67
2018-09-10T12:09:14.850Z,3.87
2018-09-10T12:11:43.637Z,2.93
2018-09-10T12:14:12.820Z,2.70
2018-09-10T12:16:41.557Z,3.47
2018-09-10T12:19:10.752Z,5.87
2018-09-10T12:21:39.475Z,2.80
2018-09-10T12:24:08.243Z,3.03
2018-09-10T12:26:37.075Z,3.50
2018-09-10T12:29:06.479Z,4.03
2018-09-10T12:31:35.327Z,2.73
2018-09-10T12:34:04.024Z,4.27
2018-09-10T12:36:32.687Z,3.53
2018-09-10T12:39:01.409Z,5.47
2018-09-10T12:41:30.289Z,14.47
2018-09-10T12:43:58.892Z,14.53
2018-09-10T12:46:27.687Z,3.30
2018-09-10T12:48:56.632Z,4.23
2018-09-10T12:51:25.268Z,4.90
2018-09-10T12:53:54.027Z,4.60
2018-09-10T12:56:22.699Z,5.03
2018-09-10T12:58:51.476Z,3.03
2018-09-10T13:01:20.332Z,14.93
2018-09-10T13:03:49.071Z,6.07
2018-09-10T13:06:17.964Z,5.37
2018-09-10T13:08:46.749Z,4.73
2018-09-10T13:11:15.448Z,6.27
2018-09-10T13:13:44.355Z,3.30
2018-09-10T13:16:13.185Z,5.03
2018-09-10T13:18:42.102Z,4.67
2018-09-10T13:21:10.892Z,3.70
2018-09-10T13:23:40.071Z,4.77
2018-09-10T13:26:09.861Z,4.43
2018-09-10T13:28:38.798Z,4.17
2018-09-10T13:31:07.708Z,5.47
2018-09-10T13:33:36.675Z,4.83
2018-09-10T13:36:05.731Z,6.67
2018-09-10T13:38:34.578Z,4.83
2018-09-10T13:41:03.311Z,8.93
2018-09-10T13:43:32.214Z,3.43
2018-09-10T13:46:01.127Z,6.70
2018-09-10T13:48:29.852Z,7.17
2018-09-10T13:50:58.565Z,5.33
2018-09-10T13:53:27.367Z,4.27
2018-09-10T13:55:56.425Z,6.13
2018-09-10T13:58:25.212Z,4.00
2018-09-10T14:00:54.282Z,5.33
2018-09-10T14:03:23.406Z,3.47
2018-09-10T14:05:52.133Z,3.43
2018-09-10T14:08:20.859Z,4.23
2018-09-10T14:10:49.665Z,8.97
2018-09-10T14:13:18.309Z,3.73
2018-09-10T14:15:47.182Z,4.13
2018-09-10T14:18:16.291Z,4.43
2018-09-10T14:20:45.108Z,5.43
2018-09-10T14:23:13.730Z,4.03
2018-09-10T14:25:42.458Z,2.57
2018-09-10T14:28:11.224Z,3.27
2018-09-10T14:30:39.992Z,5.53
2018-09-10T14:33:08.747Z,3.77
2018-09-10T14:35:37.661Z,2.77
2018-09-10T14:38:06.698Z,3.53
2018-09-10T14:40:35.381Z,5.03
2018-09-10T14:43:04.206Z,4.37
2018-09-10T14:45:32.821Z,4.43
2018-09-10T14:48:01.620Z,6.47
2018-09-10T14:50:30.792Z,5.20
2018-09-10T14:52:59.601Z,5.43
2018-09-10T14:55:28.368Z,6.67
2018-09-10T14:57:57.813Z,5.63
2018-09-10T15:00:27.592Z,3.33
2018-09-10T15:02:57.616Z,3.60
2018-09-10T15:05:26.313Z,4.47
2018-09-10T15:07:55.492Z,10.47
2018-09-10T15:10:24.186Z,7.43
2018-09-10T15:12:53.082Z,3.77
2018-09-10T15:15:21.925Z,4.33
2018-09-10T15:17:51.956Z,6.33
2018-09-10T15:20:20.918Z,3.23
2018-09-10T15:22:50.088Z,3.13
2018-09-10T15:25:18.806Z,3.80
2018-09-10T15:27:47.920Z,5.37
2018-09-10T15:30:16.767Z,4.50
2018-09-10T15:32:45.852Z,8.00
2018-09-10T15:35:14.656Z,4.33
2018-09-10T15:37:44.000Z,4.60
2018-09-10T15:40:12.750Z,4.33
2018-09-10T15:42:41.584Z,3.40
2018-09-10T15:45:10.457Z,3.17
2018-09-10T15:47:39.342Z,5.27
2018-09-10T15:50:08.279Z,4.00
2018-09-10T15:52:37.346Z,4.77
2018-09-10T15:55:06.222Z,3.03
2018-09-10T15:57:35.034Z,4.90
2018-09-10T16:00:04.146Z,3.57
2018-09-10T16:02:33.185Z,5.23
2018-09-10T16:05:01.898Z,5.43
2018-09-10T16:07:30.680Z,5.70
2018-09-10T16:09:59.332Z,4.67
2018-09-10T16:12:27.959Z,6.57
2018-09-10T16:14:57.014Z,3.30
2018-09-10T16:17:26.245Z,8.00
2018-09-10T16:19:55.793Z,4.50
2018-09-10T16:22:24.900Z,4.40
2018-09-10T16:24:53.757Z,4.00
2018-09-10T16:27:23.249Z,4.30
2018-09-10T16:29:52.353Z,6.63
2018-09-10T16:32:21.386Z,4.20
2018-09-10T16:34:50.314Z,8.83
2018-09-10T16:37:19.649Z,9.40
2018-09-10T16:39:48.543Z,8.03
2018-09-10T16:42:17.637Z,9.47
2018-09-10T16:44:46.632Z,14.33
2018-09-10T16:47:15.739Z,10.03
2018-09-10T16:49:44.808Z,15.80
2018-09-10T16:52:13.530Z,19.37
2018-09-10T16:54:42.293Z,14.93
2018-09-10T16:57:11.412Z,11.33
2018-09-10T16:59:40.312Z,15.47
2018-09-10T17:02:09.255Z,16.83
2018-09-10T17:04:38.226Z,18.70
2018-09-10T17:07:07.314Z,33.20
2018-09-10T17:09:36.194Z,35.60
2018-09-10T17:12:05.236Z,34.00
2018-09-10T17:14:36.713Z,24.67
2018-09-10T17:17:06.601Z,14.33
2018-09-10T17:19:35.798Z,11.53
2018-09-10T17:22:04.650Z,6.60
2018-09-10T17:24:33.673Z,9.17
2018-09-10T17:27:02.575Z,8.53
2018-09-10T17:29:31.658Z,9.63
2018-09-10T17:32:00.633Z,8.27
2018-09-10T17:34:29.907Z,9.13
2018-09-10T17:36:58.895Z,8.40
2018-09-10T17:39:27.576Z,11.90
2018-09-10T17:41:56.445Z,16.23
2018-09-10T17:44:25.983Z,10.67
2018-09-10T17:46:55.911Z,11.30
2018-09-10T17:49:24.839Z,15.50
2018-09-10T17:51:53.748Z,13.10
2018-09-10T17:54:23.366Z,11.73
2018-09-10T17:56:52.447Z,12.73
2018-09-10T17:59:21.595Z,12.40
2018-09-10T18:01:50.564Z,10.73
2018-09-10T18:04:19.850Z,11.50
2018-09-10T18:06:48.854Z,13.10
2018-09-10T18:09:17.773Z,10.57
2018-09-10T18:11:46.707Z,13.60
2018-09-10T18:14:15.409Z,11.40
2018-09-10T18:16:44.016Z,11.50
2018-09-10T18:19:12.605Z,8.87
2018-09-10T18:21:41.634Z,9.83
2018-09-10T18:24:10.392Z,11.47
2018-09-10T18:26:39.617Z,11.27
2018-09-10T18:29:08.442Z,9.57
2018-09-10T18:31:38.126Z,13.10
2018-09-10T18:34:07.185Z,13.47
2018-09-10T18:36:36.168Z,11.70
2018-09-10T18:39:09.190Z,10.13
2018-09-10T18:41:38.004Z,12.80
2018-09-10T18:44:07.236Z,13.40
2018-09-10T18:46:35.920Z,13.60
2018-09-10T18:49:04.762Z,19.87
2018-09-10T18:51:33.420Z,14.03
2018-09-10T18:54:02.137Z,13.67
2018-09-10T18:56:30.964Z,13.70
2018-09-10T18:58:59.980Z,18.70
2018-09-10T19:01:28.798Z,12.57
2018-09-10T19:03:57.579Z,13.03
2018-09-10T19:06:26.472Z,13.37
2018-09-10T19:08:55.178Z,16.33
2018-09-10T19:11:23.943Z,15.53
2018-09-10T19:13:52.738Z,12.63
2018-09-10T19:16:21.757Z,14.57
2018-09-10T19:18:50.481Z,17.20
2018-09-10T19:21:20.564Z,13.13
2018-09-10T19:23:49.326Z,15.07
2018-09-10T19:26:18.155Z,12.40
2018-09-10T19:28:46.980Z,13.07
2018-09-10T19:31:15.844Z,13.23
2018-09-10T19:33:44.677Z,14.27
2018-09-10T19:36:13.367Z,11.63
2018-09-10T19:38:42.407Z,15.00
2018-09-10T19:41:11.771Z,12.20
2018-09-10T19:43:40.465Z,14.37
2018-09-10T19:46:09.728Z,16.57
2018-09-10T19:48:39.273Z,11.57
2018-09-10T19:51:08.206Z,13.77
2018-09-10T19:53:37.077Z,10.37
2018-09-10T19:56:06.061Z,12.43
2018-09-10T19:58:35.818Z,9.63
2018-09-10T20:01:05.462Z,9.23
2018-09-10T20:03:34.199Z,8.97
2018-09-10T20:06:04.370Z,9.67
2018-09-10T20:08:33.203Z,9.80
2018-09-10T20:11:02.056Z,9.80
2018-09-10T20:13:31.194Z,9.03
2018-09-10T20:16:00.053Z,8.10
2018-09-10T20:18:28.920Z,8.37
2018-09-10T20:20:57.803Z,7.97
2018-09-10T20:23:26.705Z,13.43
2018-09-10T20:26:58.731Z,9.50
2018-09-10T20:29:27.537Z,10.37
2018-09-10T20:31:56.450Z,8.13
2018-09-10T20:34:25.413Z,8.00
2018-09-10T20:36:54.509Z,10.03
2018-09-10T20:39:23.475Z,8.60
2018-09-10T20:41:52.673Z,12.47
2018-09-10T20:44:21.541Z,12.20
2018-09-10T20:46:50.328Z,10.20
2018-09-10T20:49:19.009Z,10.53
2018-09-10T20:51:47.787Z,15.00
2018-09-10T20:54:16.873Z,11.87
2018-09-10T20:56:45.585Z,11.23
2018-09-10T20:59:14.395Z,9.93
2018-09-10T21:01:43.224Z,13.43
2018-09-10T21:04:11.912Z,13.80
2018-09-10T21:06:41.274Z,15.57
2018-09-10T21:09:10.835Z,12.67
2018-09-10T21:11:40.016Z,13.47
2018-09-10T21:14:09.233Z,14.50
2018-09-10T21:16:38.022Z,12.23
2018-09-10T21:19:07.236Z,15.20
2018-09-10T21:21:36.036Z,16.63
2018-09-10T21:24:04.817Z,13.67
2018-09-10T21:26:34.465Z,15.77
2018-09-10T21:29:03.408Z,18.13
2018-09-10T21:31:32.365Z,15.30
2018-09-10T21:34:01.288Z,15.30
2018-09-10T21:36:29.969Z,14.87
2018-09-10T21:38:58.740Z,16.00
2018-09-10T21:41:27.666Z,14.97
2018-09-10T21:43:56.852Z,15.60
2018-09-10T21:46:25.951Z,15.90
2018-09-10T21:48:54.770Z,15.20
2018-09-10T21:51:23.532Z,15.07
2018-09-10T21:53:52.225Z,14.23
2018-09-10T21:56:21.025Z,15.83
2018-09-10T21:58:49.923Z,14.47
2018-09-10T22:01:18.883Z,15.03
2018-09-10T22:03:47.820Z,16.77
2018-09-10T22:06:16.537Z,17.17
2018-09-10T22:08:45.439Z,14.03
2018-09-10T22:11:14.420Z,16.57
2018-09-10T22:13:43.906Z,15.63
2018-09-10T22:16:13.463Z,15.10
2018-09-10T22:18:42.445Z,15.67
2018-09-10T22:21:11.238Z,16.90
2018-09-10T22:23:40.059Z,16.27
2018-09-10T22:26:08.673Z,14.57
2018-09-10T22:28:37.440Z,14.27
2018-09-10T22:31:06.377Z,13.80
2018-09-10T22:33:35.070Z,14.40
2018-09-10T22:36:03.801Z,17.23
2018-09-10T22:38:32.533Z,13.90
2018-09-10T22:41:01.330Z,14.73
2018-09-10T22:43:30.176Z,17.17
2018-09-10T22:45:58.846Z,14.80
2018-09-10T22:48:27.593Z,17.30
2018-09-10T22:50:56.423Z,18.13
2018-09-10T22:53:25.232Z,14.07
2018-09-10T22:55:53.940Z,17.70
2018-09-10T22:58:22.610Z,16.33
2018-09-10T23:00:51.488Z,17.30
2018-09-10T23:03:20.423Z,16.13
2018-09-10T23:05:49.308Z,13.80
2018-09-10T23:08:18.266Z,16.73
2018-09-10T23:10:47.594Z,15.73
2018-09-10T23:13:16.686Z,14.27
2018-09-10T23:15:45.864Z,13.50
2018-09-10T23:18:14.615Z,15.00
2018-09-10T23:20:43.309Z,14.50
2018-09-10T23:23:12.144Z,13.70
2018-09-10T23:25:41.130Z,16.87
2018-09-10T23:28:09.854Z,16.10
2018-09-10T23:30:38.561Z,14.57
2018-09-10T23:33:07.775Z,18.33
2018-09-10T23:35:36.499Z,16.60
2018-09-10T23:38:05.222Z,14.93
2018-09-10T23:40:33.965Z,14.87
2018-09-10T23:43:02.659Z,13.40
2018-09-10T23:45:31.494Z,16.00
2018-09-10T23:48:00.340Z,13.73
2018-09-10T23:50:29.060Z,14.63
2018-09-10T23:52:57.818Z,14.10
2018-09-10T23:55:26.559Z,13.40
2018-09-10T23:57:55.222Z,14.93
